• Join FlightAware (Why Join?)
  • Login
  • US Flag 
12:48PM EDT


 

Airport Tracker/Info


-or-


 

Live Flight TrackerFlight Track Log ✈ SKW6345 ✈ 08-Aug-2013 ✈ KSFO - KBZN

Flight Track Log - Related Links

Times and Time Zones

All times are in EDT time to prevent confusion due to time zone crossing. See the SKW6345 flight status page for this flight to view local times or setup timezone preferences in your user account.

Time Position Orientation Groundspeed Altitude Reporting Facility
EDT Latitude Longitude Course Direction KTS MPH feet Rate Location/Type
11:20AM 37.6667 -122.3167 38° Northeast 197 227 2,200  Level Northern Cal TRACON
11:21AM 37.7000 -122.2667 50° Northeast 220 253 4,600 2,400 Climbing Northern Cal TRACON
11:22AM 37.6343 -122.4221 120° Southeast  Level FlightAware Approximate
11:22AM 37.7500 -122.2167 38° Northeast 247 284 6,900  Level Northern Cal TRACON
11:23AM 37.6804 -122.3030 38° Northeast  Level FlightAware Approximate
11:23AM 37.8167 -122.1500 38° Northeast 283 326 8,800  Level Northern Cal TRACON
11:24AM 37.7822 -122.2012 38° Northeast  Level FlightAware Approximate
11:24AM 37.8833 -122.1000 31° Northeast 296 341 10,700  Level Northern Cal TRACON
11:25AM 37.8721 -122.1112 38° Northeast  Level FlightAware Approximate
11:25AM 37.9425 -122.0381 40° Northeast 308 354 12,400  Level Oakland Center
11:26AM 38.0122 -121.9717 37° Northeast 316 364 14,500 1,920 Climbing Oakland Center
11:27AM 38.0836 -121.9028 37° Northeast 323 372 16,400 1,620 Climbing Oakland Center
11:28AM 38.1569 -121.8306 38° Northeast 336 387 17,900 1,380 Climbing Oakland Center
11:29AM 38.2344 -121.7564 37° Northeast 350 403 19,300 1,260 Climbing Oakland Center
11:30AM 38.3133 -121.6792 38° Northeast 359 413 20,600 1,440 Climbing Oakland Center
11:31AM 38.4108 -121.5844 37° Northeast 366 421 22,300 1,500 Climbing Oakland Center
11:32AM 38.4811 -121.4897 47° Northeast 366 421 23,700 1,200 Climbing Oakland Center
11:33AM 38.5592 -121.4061 40° Northeast 373 429 24,800 1,020 Climbing Oakland Center
11:34AM 38.6514 -121.3325 32° Northeast 385 443 25,800 1,020 Climbing Oakland Center
11:35AM 38.7478 -121.2539 32° Northeast 389 448 26,900 780 Climbing Oakland Center
11:36AM 38.8428 -121.1764 32° Northeast 401 461 27,400 480 Climbing Oakland Center
11:37AM 38.9408 -121.0947 33° Northeast 416 479 27,900 480 Climbing Oakland Center
11:38AM 39.0406 -121.0128 33° Northeast 425 489 28,500 600 Climbing Oakland Center
11:39AM 39.1406 -120.9292 33° Northeast 428 493 29,200 720 Climbing Oakland Center
11:40AM 39.2419 -120.8447 33° Northeast 432 497 30,000 720 Climbing Oakland Center
11:41AM 39.3436 -120.7586 33° Northeast 435 501 30,700 660 Climbing Oakland Center
11:42AM 39.4458 -120.6728 33° Northeast 437 503 31,400 600 Climbing Oakland Center
11:43AM 39.5669 -120.5711 33° Northeast 434 499 32,000 240 Climbing Oakland Center
11:44AM 39.6700 -120.4819 34° Northeast 442 509 32,000  Level Oakland Center
11:45AM 39.7781 -120.3928 32° Northeast 457 526 32,000  Level Oakland Center
11:46AM 39.8847 -120.3008 33° Northeast 461 531 32,000  Level Oakland Center
11:47AM 39.9914 -120.2092 33° Northeast 460 529 32,000  Level Oakland Center
11:48AM 40.0972 -120.1189 33° Northeast 458 527 32,000  Level Oakland Center
11:49AM 40.2042 -120.0275 33° Northeast 457 526 32,000  Level Oakland Center
11:50AM 40.3092 -119.9356 34° Northeast 456 525 32,100 360 Climbing Oakland Center
11:51AM 40.4167 -119.8428 33° Northeast 458 527 32,800 420 Climbing Oakland Center
11:52AM 40.5222 -119.7511 33° Northeast 455 524 33,000 60 Climbing Oakland Center
11:53AM 40.6489 -119.6381 34° Northeast 457 526 33,000  Level Oakland Center
11:54AM 40.7539 -119.5456 34° Northeast 455 524 33,000  Level Oakland Center
11:55AM 40.8597 -119.4533 33° Northeast 452 520 33,000  Level Oakland Center
11:56AM 40.9583 -119.3636 34° Northeast 450 518 33,000  Level Oakland Center
11:57AM 41.0603 -119.2758 33° Northeast 452 520 33,000  Level Oakland Center
11:59AM 41.1744 -119.1742 34° Northeast 447 514 33,000  Level Oakland Center
12:00PM 41.2742 -119.0833 34° Northeast 449 517 33,000  Level Oakland Center
12:01PM 41.3889 -118.9806 34° Northeast 447 514 33,000  Level Oakland Center
12:02PM 41.4867 -118.8928 34° Northeast 444 511 33,100 360 Climbing Oakland Center
12:03PM 41.5839 -118.8039 34° Northeast 443 510 33,800 720 Climbing Oakland Center
12:04PM 41.6964 -118.7014 34° Northeast 438 504 34,600 420 Climbing Oakland Center
12:05PM 41.8364 -118.5717 35° Northeast 427 491 35,000 120 Climbing Salt Lake Center
12:06PM 41.9469 -118.4706 34° Northeast 431 496 35,000  Level Salt Lake Center
12:07PM 42.0442 -118.3822 34° Northeast 436 502 35,000  Level Salt Lake Center
12:08PM 42.1564 -118.2769 35° Northeast 439 505 35,000  Level Salt Lake Center
12:09PM 42.2531 -118.1861 35° Northeast 441 507 35,000  Level Salt Lake Center
12:10PM 42.3578 -118.0861 35° Northeast 445 512 35,000  Level Salt Lake Center
12:11PM 42.4550 -117.9933 35° Northeast 444 511 35,000  Level Salt Lake Center
12:12PM 42.5681 -117.8858 35° Northeast 448 516 35,000  Level Salt Lake Center
12:13PM 42.6439 -117.7681 49° Northeast 435 501 35,000  Level Salt Lake Center
12:14PM 42.7239 -117.6203 54° Northeast 435 501 35,000  Level Salt Lake Center
12:15PM 42.7928 -117.4939 53° Northeast 435 501 35,000  Level Salt Lake Center
12:16PM 42.8714 -117.3447 54° Northeast 435 501 35,000  Level Salt Lake Center
12:18PM 42.9406 -117.2183 53° Northeast 435 501 35,000  Level Salt Lake Center
12:19PM 43.0197 -117.0694 54° Northeast 436 502 35,000  Level Salt Lake Center
12:20PM 43.0875 -116.9408 54° Northeast 434 499 35,000  Level Salt Lake Center
12:21PM 43.1675 -116.7908 54° Northeast 438 504 35,000  Level Salt Lake Center
12:22PM 43.2353 -116.6625 54° Northeast 435 501 35,000  Level Salt Lake Center
12:23PM 43.3144 -116.5106 54° Northeast 438 504 35,000  Level Salt Lake Center
12:24PM 43.3828 -116.3825 54° Northeast 434 499 35,000  Level Salt Lake Center
12:25PM 43.4614 -116.2303 55° Northeast 438 504 35,000  Level Salt Lake Center
12:26PM 43.5278 -116.0997 55° Northeast 437 503 35,000  Level Salt Lake Center
12:27PM 43.6058 -115.9481 55° Northeast 436 502 35,000  Level Salt Lake Center
12:28PM 43.6728 -115.8172 55° Northeast 436 502 35,000  Level Salt Lake Center
12:29PM 43.7506 -115.6647 55° Northeast 436 502 35,000  Level Salt Lake Center
12:30PM 43.8169 -115.5336 55° Northeast 435 501 35,000  Level Salt Lake Center
12:31PM 43.8936 -115.3811 55° Northeast 433 498 35,000  Level Salt Lake Center
12:32PM 43.9603 -115.2497 55° Northeast 437 503 35,000  Level Salt Lake Center
12:33PM 44.0367 -115.0950 55° Northeast 437 503 35,000  Level Salt Lake Center
12:34PM 44.1022 -114.9644 55° Northeast 434 499 35,000  Level Salt Lake Center
12:35PM 44.1783 -114.8089 56° Northeast 436 502 35,000  Level Salt Lake Center
12:36PM 44.2442 -114.6758 55° Northeast 436 502 35,000  Level Salt Lake Center
12:37PM 44.3092 -114.5422 56° Northeast 436 502 35,000  Level Salt Lake Center
12:38PM 44.3858 -114.3853 56° Northeast 437 503 35,000  Level Salt Lake Center
12:39PM 44.4525 -114.2514 55° Northeast 438 504 35,000  Level Salt Lake Center
12:40PM 44.5281 -114.0931 56° Northeast 438 504 35,000  Level Salt Lake Center
12:41PM 44.5919 -113.9583 56° Northeast 435 501 35,000  Level Salt Lake Center
12:42PM 44.6608 -113.8072 57° Northeast 436 502 35,000  Level Salt Lake Center
12:43PM 44.7353 -113.6481 57° Northeast 435 501 35,000  Level Salt Lake Center
12:44PM 44.8011 -113.5122 56° Northeast 438 504 35,000  Level Salt Lake Center
12:45PM 44.8753 -113.3522 57° Northeast 438 504 35,000  Level Salt Lake Center
12:46PM 44.9397 -113.2164 56° Northeast 435 501 35,000 -600 Level Salt Lake Center
12:48PM 45.0036 -113.0767 57° Northeast 440 506 33,800 -1,800 Descending Salt Lake Center
12:49PM 45.0794 -112.9136 57° Northeast 443 510 31,400 -2,160 Descending Salt Lake Center
12:50PM 45.1422 -112.7800 56° Northeast 427 491 29,400 -2,160 Descending Salt Lake Center
12:51PM 45.2133 -112.6264 57° Northeast 415 478 27,000 -2,160 Descending Salt Lake Center
12:52PM 45.2683 -112.5003 58° Northeast 398 458 25,000 -2,160 Descending Salt Lake Center
12:53PM 45.3244 -112.3511 62° Northeast 387 445 22,600 -2,160 Descending Salt Lake Center
12:54PM 45.3719 -112.2286 61° Northeast 377 434 20,600 -2,040 Descending Salt Lake Center
12:55PM 45.4211 -112.1044 61° Northeast 365 420 18,500 -1,980 Descending Salt Lake Center
12:56PM 45.4681 -111.9833 61° Northeast 353 406 16,600 -1,620 Descending Salt Lake Center
12:57PM 45.5225 -111.8419 61° Northeast 344 396 15,200 -1,320 Descending Salt Lake Center
12:58PM 45.5664 -111.7269 61° Northeast 333 383 13,900 -1,080 Descending Salt Lake Center
12:59PM 45.6150 -111.6186 57° Northeast 328 377 13,000 -480 Descending Salt Lake Center
01:00PM 45.6775 -111.5419 41° Northeast 298 343 13,000  Level Salt Lake Center
01:01PM 45.7356 -111.4717 40° Northeast 286 329 13,000  Level Salt Lake Center
01:02PM 45.7908 -111.4058 40° Northeast 266 306 13,000  Level Salt Lake Center
01:03PM 45.8472 -111.3342 42° Northeast 265 305 13,000  Level Salt Lake Center
01:04PM 45.9089 -111.3206 North 248 285 13,000  Level Salt Lake Center
01:05PM 45.8817 -111.3989 243° Southwest 239 275 13,000  Level Salt Lake Center
01:06PM 45.8136 -111.3792 169° South 251 289 13,000 -420 Level Salt Lake Center
01:07PM 45.7456 -111.3453 161° South 260 299 12,200 -1,020 Descending Salt Lake Center
01:08PM 45.6822 -111.3008 154° Southeast 259 298 11,000 -1,020 Descending Salt Lake Center
01:09PM 45.6397 -111.2142 125° Southeast 237 273 10,100 -1,140 Descending Salt Lake Center
01:10PM 45.6500 -111.1372 79° East 218 251 8,700 -1,320 Descending Salt Lake Center
01:11PM 45.6778 -111.0872 51° Northeast 182 209 7,400 -1,320 Descending Salt Lake Center
01:12PM 45.7189 -111.0750 12° North 171 197 6,000 -1,200 Descending Salt Lake Center
01:13PM 45.7522 -111.1164 319° Northwest 163 188 5,000 -720 Descending Salt Lake Center
01:14PM 45.7861 -111.1653 315° West 158 182 4,600 -420 Descending Salt Lake Center